sensor_id;sensor_type;location;lat;lon;timestamp;P1;durP1;ratioP1;P2;durP2;ratioP2
4676;SDS011;2352;48.180;11.478;2022-11-03T00:02:24;9.73;;;8.93;;
4676;SDS011;2352;48.180;11.478;2022-11-03T00:05:28;9.47;;;8.43;;
4676;SDS011;2352;48.180;11.478;2022-11-03T00:08:49;9.03;;;8.33;;
4676;SDS011;2352;48.180;11.478;2022-11-03T00:11:52;12.97;;;8.00;;
4676;SDS011;2352;48.180;11.478;2022-11-03T00:14:54;8.00;;;7.33;;
4676;SDS011;2352;48.180;11.478;2022-11-03T00:17:58;8.10;;;7.40;;
4676;SDS011;2352;48.180;11.478;2022-11-03T00:21:03;7.77;;;7.07;;
4676;SDS011;2352;48.180;11.478;2022-11-03T00:24:07;11.37;;;9.00;;
4676;SDS011;2352;48.180;11.478;2022-11-03T00:27:10;8.47;;;7.67;;
4676;SDS011;2352;48.180;11.478;2022-11-03T00:30:14;9.67;;;8.77;;
4676;SDS011;2352;48.180;11.478;2022-11-03T00:33:17;10.73;;;7.67;;
4676;SDS011;2352;48.180;11.478;2022-11-03T00:36:22;11.80;;;8.90;;
4676;SDS011;2352;48.180;11.478;2022-11-03T00:39:26;9.73;;;8.20;;
4676;SDS011;2352;48.180;11.478;2022-11-03T00:42:29;9.37;;;8.40;;
4676;SDS011;2352;48.180;11.478;2022-11-03T00:45:32;10.17;;;8.27;;
4676;SDS011;2352;48.180;11.478;2022-11-03T00:48:35;8.30;;;7.50;;
4676;SDS011;2352;48.180;11.478;2022-11-03T00:51:40;8.67;;;7.83;;
4676;SDS011;2352;48.180;11.478;2022-11-03T00:54:43;9.03;;;7.50;;
4676;SDS011;2352;48.180;11.478;2022-11-03T00:57:51;9.80;;;6.57;;
4676;SDS011;2352;48.180;11.478;2022-11-03T01:00:58;7.77;;;7.07;;
4676;SDS011;2352;48.180;11.478;2022-11-03T01:04:02;7.27;;;6.57;;
4676;SDS011;2352;48.180;11.478;2022-11-03T01:07:24;7.57;;;6.97;;
4676;SDS011;2352;48.180;11.478;2022-11-03T01:10:27;7.57;;;6.87;;
4676;SDS011;2352;48.180;11.478;2022-11-03T01:13:30;6.10;;;5.60;;
4676;SDS011;2352;48.180;11.478;2022-11-03T01:16:33;6.30;;;5.70;;
4676;SDS011;2352;48.180;11.478;2022-11-03T01:19:36;5.93;;;5.33;;
4676;SDS011;2352;48.180;11.478;2022-11-03T01:22:41;7.60;;;6.53;;
4676;SDS011;2352;48.180;11.478;2022-11-03T01:25:44;5.63;;;5.10;;
4676;SDS011;2352;48.180;11.478;2022-11-03T01:28:47;8.00;;;6.40;;
4676;SDS011;2352;48.180;11.478;2022-11-03T01:31:50;7.10;;;6.50;;
4676;SDS011;2352;48.180;11.478;2022-11-03T01:34:53;7.37;;;5.87;;
4676;SDS011;2352;48.180;11.478;2022-11-03T01:37:58;7.80;;;6.03;;
4676;SDS011;2352;48.180;11.478;2022-11-03T01:41:02;5.57;;;5.07;;
4676;SDS011;2352;48.180;11.478;2022-11-03T01:47:37;5.73;;;5.17;;
4676;SDS011;2352;48.180;11.478;2022-11-03T01:50:42;5.67;;;5.10;;
4676;SDS011;2352;48.180;11.478;2022-11-03T01:53:48;4.27;;;3.97;;
4676;SDS011;2352;48.180;11.478;2022-11-03T01:56:54;7.90;;;4.50;;
4676;SDS011;2352;48.180;11.478;2022-11-03T01:59:58;4.70;;;4.30;;
4676;SDS011;2352;48.180;11.478;2022-11-03T02:03:02;4.87;;;4.50;;
4676;SDS011;2352;48.180;11.478;2022-11-03T02:06:07;4.97;;;4.57;;
4676;SDS011;2352;48.180;11.478;2022-11-03T02:09:12;5.63;;;4.67;;
4676;SDS011;2352;48.180;11.478;2022-11-03T02:12:15;5.03;;;3.27;;
4676;SDS011;2352;48.180;11.478;2022-11-03T02:15:21;4.43;;;4.13;;
4676;SDS011;2352;48.180;11.478;2022-11-03T02:18:25;5.47;;;4.97;;
4676;SDS011;2352;48.180;11.478;2022-11-03T02:21:33;5.97;;;4.87;;
4676;SDS011;2352;48.180;11.478;2022-11-03T02:24:49;4.50;;;4.10;;
4676;SDS011;2352;48.180;11.478;2022-11-03T02:27:56;5.37;;;4.40;;
4676;SDS011;2352;48.180;11.478;2022-11-03T02:31:02;4.10;;;3.70;;
4676;SDS011;2352;48.180;11.478;2022-11-03T02:34:13;6.07;;;4.40;;
4676;SDS011;2352;48.180;11.478;2022-11-03T02:37:20;4.47;;;4.07;;
4676;SDS011;2352;48.180;11.478;2022-11-03T02:40:27;4.20;;;3.93;;
4676;SDS011;2352;48.180;11.478;2022-11-03T02:43:34;5.20;;;4.73;;
4676;SDS011;2352;48.180;11.478;2022-11-03T02:46:37;5.30;;;4.80;;
4676;SDS011;2352;48.180;11.478;2022-11-03T02:49:44;5.30;;;4.00;;
4676;SDS011;2352;48.180;11.478;2022-11-03T02:52:48;3.80;;;3.47;;
4676;SDS011;2352;48.180;11.478;2022-11-03T02:55:54;4.63;;;4.23;;
4676;SDS011;2352;48.180;11.478;2022-11-03T02:59:05;4.93;;;4.33;;
4676;SDS011;2352;48.180;11.478;2022-11-03T03:02:12;6.00;;;4.90;;
4676;SDS011;2352;48.180;11.478;2022-11-03T03:05:19;5.57;;;5.07;;
4676;SDS011;2352;48.180;11.478;2022-11-03T03:08:26;4.90;;;4.53;;
4676;SDS011;2352;48.180;11.478;2022-11-03T03:11:31;5.17;;;4.30;;
4676;SDS011;2352;48.180;11.478;2022-11-03T03:14:41;4.60;;;4.30;;
4676;SDS011;2352;48.180;11.478;2022-11-03T03:17:48;5.10;;;4.70;;
4676;SDS011;2352;48.180;11.478;2022-11-03T03:20:54;5.57;;;5.07;;
4676;SDS011;2352;48.180;11.478;2022-11-03T03:24:01;5.07;;;4.63;;
4676;SDS011;2352;48.180;11.478;2022-11-03T03:27:08;6.03;;;4.70;;
4676;SDS011;2352;48.180;11.478;2022-11-03T03:30:15;4.63;;;4.07;;
4676;SDS011;2352;48.180;11.478;2022-11-03T03:33:20;7.80;;;4.87;;
4676;SDS011;2352;48.180;11.478;2022-11-03T03:36:24;8.60;;;5.47;;
4676;SDS011;2352;48.180;11.478;2022-11-03T03:39:29;4.77;;;4.37;;
4676;SDS011;2352;48.180;11.478;2022-11-03T03:42:35;7.80;;;5.07;;
4676;SDS011;2352;48.180;11.478;2022-11-03T03:45:41;4.90;;;4.47;;
4676;SDS011;2352;48.180;11.478;2022-11-03T03:48:46;5.10;;;4.60;;
4676;SDS011;2352;48.180;11.478;2022-11-03T03:51:49;5.90;;;5.40;;
4676;SDS011;2352;48.180;11.478;2022-11-03T03:54:53;4.73;;;4.37;;
4676;SDS011;2352;48.180;11.478;2022-11-03T03:57:56;5.63;;;5.13;;
4676;SDS011;2352;48.180;11.478;2022-11-03T04:01:02;5.10;;;4.70;;
4676;SDS011;2352;48.180;11.478;2022-11-03T04:04:05;5.50;;;5.03;;
4676;SDS011;2352;48.180;11.478;2022-11-03T04:07:08;4.97;;;4.57;;
4676;SDS011;2352;48.180;11.478;2022-11-03T04:10:28;5.83;;;4.37;;
4676;SDS011;2352;48.180;11.478;2022-11-03T04:13:31;5.13;;;4.63;;
4676;SDS011;2352;48.180;11.478;2022-11-03T04:16:54;6.00;;;4.70;;
4676;SDS011;2352;48.180;11.478;2022-11-03T04:20:15;3.87;;;3.57;;
4676;SDS011;2352;48.180;11.478;2022-11-03T04:23:35;5.67;;;5.17;;
4676;SDS011;2352;48.180;11.478;2022-11-03T04:26:38;5.37;;;4.77;;
4676;SDS011;2352;48.180;11.478;2022-11-03T04:29:42;7.30;;;5.27;;
4676;SDS011;2352;48.180;11.478;2022-11-03T04:32:47;6.47;;;5.03;;
4676;SDS011;2352;48.180;11.478;2022-11-03T04:35:51;5.67;;;4.67;;
4676;SDS011;2352;48.180;11.478;2022-11-03T04:38:56;4.77;;;4.37;;
4676;SDS011;2352;48.180;11.478;2022-11-03T04:41:59;6.80;;;5.20;;
4676;SDS011;2352;48.180;11.478;2022-11-03T04:45:05;5.53;;;4.57;;
4676;SDS011;2352;48.180;11.478;2022-11-03T04:48:18;6.57;;;5.97;;
4676;SDS011;2352;48.180;11.478;2022-11-03T04:51:24;4.83;;;4.43;;
4676;SDS011;2352;48.180;11.478;2022-11-03T04:54:29;5.33;;;4.83;;
4676;SDS011;2352;48.180;11.478;2022-11-03T04:57:32;4.90;;;4.50;;
4676;SDS011;2352;48.180;11.478;2022-11-03T05:00:35;5.07;;;4.57;;
4676;SDS011;2352;48.180;11.478;2022-11-03T05:03:39;4.77;;;4.37;;
4676;SDS011;2352;48.180;11.478;2022-11-03T05:06:45;5.43;;;4.93;;
4676;SDS011;2352;48.180;11.478;2022-11-03T05:09:51;5.17;;;4.77;;
4676;SDS011;2352;48.180;11.478;2022-11-03T05:12:55;4.57;;;4.20;;
4676;SDS011;2352;48.180;11.478;2022-11-03T05:16:03;5.43;;;5.03;;
4676;SDS011;2352;48.180;11.478;2022-11-03T05:22:17;6.67;;;6.03;;
4676;SDS011;2352;48.180;11.478;2022-11-03T05:25:34;6.27;;;5.77;;
4676;SDS011;2352;48.180;11.478;2022-11-03T05:28:41;6.17;;;5.57;;
4676;SDS011;2352;48.180;11.478;2022-11-03T05:31:49;6.77;;;6.27;;
4676;SDS011;2352;48.180;11.478;2022-11-03T05:34:55;5.87;;;5.27;;
4676;SDS011;2352;48.180;11.478;2022-11-03T05:37:59;5.53;;;5.03;;
4676;SDS011;2352;48.180;11.478;2022-11-03T05:41:11;4.67;;;4.37;;
4676;SDS011;2352;48.180;11.478;2022-11-03T05:44:21;4.80;;;4.50;;
4676;SDS011;2352;48.180;11.478;2022-11-03T05:47:31;6.23;;;5.47;;
4676;SDS011;2352;48.180;11.478;2022-11-03T05:50:39;5.50;;;5.13;;
4676;SDS011;2352;48.180;11.478;2022-11-03T05:53:43;5.93;;;5.43;;
4676;SDS011;2352;48.180;11.478;2022-11-03T05:56:48;4.50;;;4.20;;
4676;SDS011;2352;48.180;11.478;2022-11-03T05:59:51;4.90;;;4.60;;
4676;SDS011;2352;48.180;11.478;2022-11-03T06:02:54;5.03;;;4.73;;
4676;SDS011;2352;48.180;11.478;2022-11-03T06:06:00;6.10;;;4.70;;
4676;SDS011;2352;48.180;11.478;2022-11-03T06:09:08;4.43;;;4.13;;
4676;SDS011;2352;48.180;11.478;2022-11-03T06:12:15;4.80;;;4.40;;
4676;SDS011;2352;48.180;11.478;2022-11-03T06:15:23;5.93;;;5.53;;
4676;SDS011;2352;48.180;11.478;2022-11-03T06:18:31;5.80;;;5.40;;
4676;SDS011;2352;48.180;11.478;2022-11-03T06:21:37;7.30;;;5.40;;
4676;SDS011;2352;48.180;11.478;2022-11-03T06:24:44;6.13;;;5.73;;
4676;SDS011;2352;48.180;11.478;2022-11-03T06:27:49;6.00;;;5.60;;
4676;SDS011;2352;48.180;11.478;2022-11-03T06:30:53;6.67;;;6.17;;
4676;SDS011;2352;48.180;11.478;2022-11-03T06:33:57;6.87;;;6.23;;
4676;SDS011;2352;48.180;11.478;2022-11-03T06:37:08;9.83;;;7.97;;
4676;SDS011;2352;48.180;11.478;2022-11-03T06:43:39;7.83;;;6.67;;
4676;SDS011;2352;48.180;11.478;2022-11-03T06:46:43;8.13;;;7.33;;
4676;SDS011;2352;48.180;11.478;2022-11-03T06:49:46;10.53;;;7.27;;
4676;SDS011;2352;48.180;11.478;2022-11-03T06:52:51;12.03;;;9.37;;
4676;SDS011;2352;48.180;11.478;2022-11-03T06:55:55;12.00;;;7.80;;
4676;SDS011;2352;48.180;11.478;2022-11-03T06:58:59;11.03;;;8.67;;
4676;SDS011;2352;48.180;11.478;2022-11-03T07:02:04;14.83;;;9.77;;
4676;SDS011;2352;48.180;11.478;2022-11-03T07:05:25;9.97;;;8.93;;
4676;SDS011;2352;48.180;11.478;2022-11-03T07:08:32;15.17;;;10.07;;
4676;SDS011;2352;48.180;11.478;2022-11-03T07:11:39;12.70;;;10.00;;
4676;SDS011;2352;48.180;11.478;2022-11-03T07:14:45;10.47;;;9.50;;
4676;SDS011;2352;48.180;11.478;2022-11-03T07:17:48;15.23;;;9.20;;
4676;SDS011;2352;48.180;11.478;2022-11-03T07:20:51;8.33;;;7.73;;
4676;SDS011;2352;48.180;11.478;2022-11-03T07:23:57;10.50;;;9.13;;
4676;SDS011;2352;48.180;11.478;2022-11-03T07:27:11;8.80;;;7.90;;
4676;SDS011;2352;48.180;11.478;2022-11-03T07:30:19;9.03;;;8.27;;
4676;SDS011;2352;48.180;11.478;2022-11-03T07:33:24;9.80;;;8.90;;
4676;SDS011;2352;48.180;11.478;2022-11-03T07:36:29;9.50;;;8.70;;
4676;SDS011;2352;48.180;11.478;2022-11-03T07:39:34;10.10;;;9.27;;
4676;SDS011;2352;48.180;11.478;2022-11-03T07:42:39;9.17;;;8.47;;
4676;SDS011;2352;48.180;11.478;2022-11-03T07:45:42;9.47;;;8.50;;
4676;SDS011;2352;48.180;11.478;2022-11-03T07:48:50;8.77;;;8.07;;
4676;SDS011;2352;48.180;11.478;2022-11-03T07:51:55;9.00;;;8.20;;
4676;SDS011;2352;48.180;11.478;2022-11-03T07:55:04;6.80;;;6.27;;
4676;SDS011;2352;48.180;11.478;2022-11-03T07:58:14;6.30;;;5.80;;
4676;SDS011;2352;48.180;11.478;2022-11-03T08:01:30;6.90;;;6.30;;
4676;SDS011;2352;48.180;11.478;2022-11-03T08:04:36;6.47;;;5.90;;
4676;SDS011;2352;48.180;11.478;2022-11-03T08:07:40;8.60;;;7.80;;
4676;SDS011;2352;48.180;11.478;2022-11-03T08:10:44;8.50;;;7.47;;
4676;SDS011;2352;48.180;11.478;2022-11-03T08:13:47;7.97;;;7.37;;
4676;SDS011;2352;48.180;11.478;2022-11-03T08:16:50;6.57;;;5.97;;
4676;SDS011;2352;48.180;11.478;2022-11-03T08:19:53;7.10;;;6.60;;
4676;SDS011;2352;48.180;11.478;2022-11-03T08:22:56;7.40;;;6.80;;
4676;SDS011;2352;48.180;11.478;2022-11-03T08:26:21;7.87;;;7.17;;
4676;SDS011;2352;48.180;11.478;2022-11-03T08:29:25;7.37;;;6.80;;
4676;SDS011;2352;48.180;11.478;2022-11-03T08:32:28;8.33;;;7.63;;
4676;SDS011;2352;48.180;11.478;2022-11-03T08:35:31;6.83;;;6.33;;
4676;SDS011;2352;48.180;11.478;2022-11-03T08:38:34;7.90;;;7.30;;
4676;SDS011;2352;48.180;11.478;2022-11-03T08:41:38;7.57;;;6.93;;
4676;SDS011;2352;48.180;11.478;2022-11-03T08:44:41;8.23;;;7.50;;
4676;SDS011;2352;48.180;11.478;2022-11-03T08:47:44;8.60;;;8.00;;
4676;SDS011;2352;48.180;11.478;2022-11-03T08:50:47;8.17;;;7.47;;
4676;SDS011;2352;48.180;11.478;2022-11-03T08:53:54;6.23;;;5.83;;
4676;SDS011;2352;48.180;11.478;2022-11-03T08:56:58;8.37;;;7.70;;
4676;SDS011;2352;48.180;11.478;2022-11-03T09:00:02;8.97;;;8.37;;
4676;SDS011;2352;48.180;11.478;2022-11-03T09:03:06;9.53;;;8.60;;
4676;SDS011;2352;48.180;11.478;2022-11-03T09:06:09;9.87;;;8.97;;
4676;SDS011;2352;48.180;11.478;2022-11-03T09:09:12;9.23;;;8.43;;
4676;SDS011;2352;48.180;11.478;2022-11-03T09:12:37;9.50;;;8.63;;
4676;SDS011;2352;48.180;11.478;2022-11-03T09:15:41;7.90;;;7.10;;
4676;SDS011;2352;48.180;11.478;2022-11-03T09:18:44;9.17;;;8.27;;
4676;SDS011;2352;48.180;11.478;2022-11-03T09:21:47;9.93;;;8.90;;
4676;SDS011;2352;48.180;11.478;2022-11-03T09:24:52;9.67;;;8.97;;
4676;SDS011;2352;48.180;11.478;2022-11-03T09:27:56;9.00;;;8.37;;
4676;SDS011;2352;48.180;11.478;2022-11-03T09:30:59;9.73;;;8.57;;
4676;SDS011;2352;48.180;11.478;2022-11-03T09:34:02;11.03;;;9.60;;
4676;SDS011;2352;48.180;11.478;2022-11-03T09:37:05;8.37;;;7.77;;
4676;SDS011;2352;48.180;11.478;2022-11-03T09:40:09;9.10;;;8.30;;
4676;SDS011;2352;48.180;11.478;2022-11-03T09:43:16;9.80;;;8.90;;
4676;SDS011;2352;48.180;11.478;2022-11-03T09:46:19;11.00;;;9.10;;
4676;SDS011;2352;48.180;11.478;2022-11-03T09:49:22;10.13;;;9.30;;
4676;SDS011;2352;48.180;11.478;2022-11-03T09:52:25;9.77;;;8.93;;
4676;SDS011;2352;48.180;11.478;2022-11-03T09:55:28;10.37;;;9.17;;
4676;SDS011;2352;48.180;11.478;2022-11-03T09:58:34;9.77;;;8.83;;
4676;SDS011;2352;48.180;11.478;2022-11-03T10:01:36;8.70;;;8.00;;
4676;SDS011;2352;48.180;11.478;2022-11-03T10:04:40;9.53;;;8.53;;
4676;SDS011;2352;48.180;11.478;2022-11-03T10:07:43;10.50;;;9.70;;
4676;SDS011;2352;48.180;11.478;2022-11-03T10:10:46;11.60;;;10.33;;
4676;SDS011;2352;48.180;11.478;2022-11-03T10:13:52;10.47;;;9.70;;
4676;SDS011;2352;48.180;11.478;2022-11-03T10:16:58;9.67;;;8.97;;
4676;SDS011;2352;48.180;11.478;2022-11-03T10:20:01;9.73;;;8.97;;
4676;SDS011;2352;48.180;11.478;2022-11-03T10:23:07;9.17;;;8.43;;
4676;SDS011;2352;48.180;11.478;2022-11-03T10:26:11;10.00;;;9.20;;
4676;SDS011;2352;48.180;11.478;2022-11-03T10:29:18;9.63;;;8.93;;
4676;SDS011;2352;48.180;11.478;2022-11-03T10:32:27;11.47;;;10.57;;
4676;SDS011;2352;48.180;11.478;2022-11-03T10:35:33;9.90;;;9.10;;
4676;SDS011;2352;48.180;11.478;2022-11-03T10:38:37;10.80;;;9.97;;
4676;SDS011;2352;48.180;11.478;2022-11-03T10:41:40;9.77;;;8.90;;
4676;SDS011;2352;48.180;11.478;2022-11-03T10:45:09;12.40;;;11.17;;
4676;SDS011;2352;48.180;11.478;2022-11-03T10:48:17;13.40;;;9.33;;
4676;SDS011;2352;48.180;11.478;2022-11-03T10:51:20;11.23;;;10.07;;
4676;SDS011;2352;48.180;11.478;2022-11-03T10:54:24;10.07;;;9.03;;
4676;SDS011;2352;48.180;11.478;2022-11-03T10:57:27;9.90;;;9.13;;
4676;SDS011;2352;48.180;11.478;2022-11-03T11:00:32;10.17;;;9.37;;
4676;SDS011;2352;48.180;11.478;2022-11-03T11:03:35;12.43;;;11.20;;
4676;SDS011;2352;48.180;11.478;2022-11-03T11:06:43;10.07;;;9.33;;
4676;SDS011;2352;48.180;11.478;2022-11-03T11:09:47;11.27;;;10.37;;
4676;SDS011;2352;48.180;11.478;2022-11-03T11:13:03;11.20;;;10.30;;
4676;SDS011;2352;48.180;11.478;2022-11-03T11:26:54;10.47;;;9.23;;
4676;SDS011;2352;48.180;11.478;2022-11-03T11:29:57;10.17;;;9.47;;
4676;SDS011;2352;48.180;11.478;2022-11-03T11:33:02;10.07;;;9.37;;
4676;SDS011;2352;48.180;11.478;2022-11-03T11:36:19;10.30;;;9.60;;
4676;SDS011;2352;48.180;11.478;2022-11-03T11:39:42;9.70;;;9.00;;
4676;SDS011;2352;48.180;11.478;2022-11-03T11:46:36;13.43;;;8.33;;
4676;SDS011;2352;48.180;11.478;2022-11-03T11:49:43;8.70;;;7.93;;
4676;SDS011;2352;48.180;11.478;2022-11-03T11:52:47;8.23;;;7.63;;
4676;SDS011;2352;48.180;11.478;2022-11-03T11:55:54;8.07;;;7.50;;
4676;SDS011;2352;48.180;11.478;2022-11-03T11:58:58;9.77;;;9.03;;
4676;SDS011;2352;48.180;11.478;2022-11-03T12:02:01;8.07;;;7.47;;
4676;SDS011;2352;48.180;11.478;2022-11-03T12:05:16;9.07;;;8.17;;
4676;SDS011;2352;48.180;11.478;2022-11-03T12:08:24;10.97;;;10.07;;
4676;SDS011;2352;48.180;11.478;2022-11-03T12:11:39;9.53;;;8.83;;
4676;SDS011;2352;48.180;11.478;2022-11-03T12:14:47;8.70;;;8.03;;
4676;SDS011;2352;48.180;11.478;2022-11-03T12:17:50;8.27;;;7.63;;
4676;SDS011;2352;48.180;11.478;2022-11-03T12:20:54;12.83;;;8.10;;
4676;SDS011;2352;48.180;11.478;2022-11-03T12:23:57;8.77;;;7.97;;
4676;SDS011;2352;48.180;11.478;2022-11-03T12:27:01;8.93;;;8.23;;
4676;SDS011;2352;48.180;11.478;2022-11-03T12:30:07;7.60;;;6.97;;
4676;SDS011;2352;48.180;11.478;2022-11-03T12:33:14;8.13;;;7.53;;
4676;SDS011;2352;48.180;11.478;2022-11-03T12:36:19;8.03;;;7.50;;
4676;SDS011;2352;48.180;11.478;2022-11-03T12:39:22;7.63;;;7.03;;
4676;SDS011;2352;48.180;11.478;2022-11-03T12:42:25;7.80;;;6.90;;
4676;SDS011;2352;48.180;11.478;2022-11-03T12:45:28;8.40;;;7.70;;
4676;SDS011;2352;48.180;11.478;2022-11-03T12:48:31;8.30;;;7.70;;
4676;SDS011;2352;48.180;11.478;2022-11-03T12:51:36;7.00;;;6.13;;
4676;SDS011;2352;48.180;11.478;2022-11-03T12:54:39;7.83;;;7.17;;
4676;SDS011;2352;48.180;11.478;2022-11-03T12:57:42;8.87;;;7.97;;
4676;SDS011;2352;48.180;11.478;2022-11-03T13:00:46;9.30;;;6.67;;
4676;SDS011;2352;48.180;11.478;2022-11-03T13:03:56;8.00;;;7.30;;
4676;SDS011;2352;48.180;11.478;2022-11-03T13:07:01;7.07;;;6.57;;
4676;SDS011;2352;48.180;11.478;2022-11-03T13:10:04;7.20;;;6.50;;
4676;SDS011;2352;48.180;11.478;2022-11-03T13:13:07;7.53;;;6.63;;
4676;SDS011;2352;48.180;11.478;2022-11-03T13:16:11;8.37;;;7.40;;
4676;SDS011;2352;48.180;11.478;2022-11-03T13:19:14;7.83;;;7.07;;
4676;SDS011;2352;48.180;11.478;2022-11-03T13:22:18;7.90;;;7.20;;
4676;SDS011;2352;48.180;11.478;2022-11-03T13:25:21;8.47;;;7.40;;
4676;SDS011;2352;48.180;11.478;2022-11-03T13:28:25;8.30;;;7.63;;
4676;SDS011;2352;48.180;11.478;2022-11-03T13:31:28;6.10;;;5.70;;
4676;SDS011;2352;48.180;11.478;2022-11-03T13:34:31;10.17;;;7.27;;
4676;SDS011;2352;48.180;11.478;2022-11-03T13:37:36;6.90;;;6.40;;
4676;SDS011;2352;48.180;11.478;2022-11-03T13:40:39;8.40;;;7.77;;
4676;SDS011;2352;48.180;11.478;2022-11-03T13:43:58;6.30;;;5.90;;
4676;SDS011;2352;48.180;11.478;2022-11-03T13:47:01;6.83;;;6.37;;
4676;SDS011;2352;48.180;11.478;2022-11-03T13:50:04;6.63;;;6.20;;
4676;SDS011;2352;48.180;11.478;2022-11-03T13:53:16;8.80;;;8.10;;
4676;SDS011;2352;48.180;11.478;2022-11-03T13:56:39;8.67;;;7.73;;
4676;SDS011;2352;48.180;11.478;2022-11-03T14:00:02;7.83;;;7.33;;
4676;SDS011;2352;48.180;11.478;2022-11-03T14:03:06;7.93;;;7.43;;
4676;SDS011;2352;48.180;11.478;2022-11-03T14:06:29;7.23;;;6.73;;
4676;SDS011;2352;48.180;11.478;2022-11-03T14:09:34;6.97;;;6.47;;
4676;SDS011;2352;48.180;11.478;2022-11-03T14:12:42;7.03;;;6.43;;
4676;SDS011;2352;48.180;11.478;2022-11-03T14:15:45;7.53;;;6.83;;
4676;SDS011;2352;48.180;11.478;2022-11-03T14:18:48;7.10;;;6.43;;
4676;SDS011;2352;48.180;11.478;2022-11-03T14:21:50;7.57;;;6.63;;
4676;SDS011;2352;48.180;11.478;2022-11-03T14:24:55;7.40;;;6.80;;
4676;SDS011;2352;48.180;11.478;2022-11-03T14:27:58;6.53;;;5.90;;
4676;SDS011;2352;48.180;11.478;2022-11-03T14:31:01;6.67;;;6.10;;
4676;SDS011;2352;48.180;11.478;2022-11-03T14:34:05;7.47;;;5.87;;
4676;SDS011;2352;48.180;11.478;2022-11-03T14:37:09;7.10;;;6.43;;
4676;SDS011;2352;48.180;11.478;2022-11-03T14:40:13;6.77;;;6.27;;
4676;SDS011;2352;48.180;11.478;2022-11-03T14:43:38;7.50;;;6.80;;
4676;SDS011;2352;48.180;11.478;2022-11-03T14:46:41;6.03;;;5.53;;
4676;SDS011;2352;48.180;11.478;2022-11-03T14:49:44;5.70;;;5.20;;
4676;SDS011;2352;48.180;11.478;2022-11-03T14:52:47;5.93;;;5.53;;
4676;SDS011;2352;48.180;11.478;2022-11-03T14:55:51;6.67;;;6.27;;
4676;SDS011;2352;48.180;11.478;2022-11-03T14:58:54;6.70;;;6.20;;
4676;SDS011;2352;48.180;11.478;2022-11-03T15:01:57;7.37;;;6.77;;
4676;SDS011;2352;48.180;11.478;2022-11-03T15:05:01;6.97;;;6.27;;
4676;SDS011;2352;48.180;11.478;2022-11-03T15:08:04;7.23;;;6.67;;
4676;SDS011;2352;48.180;11.478;2022-11-03T15:11:09;7.53;;;6.83;;
4676;SDS011;2352;48.180;11.478;2022-11-03T15:14:12;8.57;;;7.67;;
4676;SDS011;2352;48.180;11.478;2022-11-03T15:17:15;7.30;;;6.70;;
4676;SDS011;2352;48.180;11.478;2022-11-03T15:20:18;7.73;;;7.13;;
4676;SDS011;2352;48.180;11.478;2022-11-03T15:23:21;8.20;;;7.60;;
4676;SDS011;2352;48.180;11.478;2022-11-03T15:26:45;8.67;;;7.97;;
4676;SDS011;2352;48.180;11.478;2022-11-03T15:29:48;7.73;;;7.03;;
4676;SDS011;2352;48.180;11.478;2022-11-03T15:32:51;8.43;;;7.83;;
4676;SDS011;2352;48.180;11.478;2022-11-03T15:35:55;8.40;;;7.70;;
4676;SDS011;2352;48.180;11.478;2022-11-03T15:38:58;8.93;;;8.17;;
4676;SDS011;2352;48.180;11.478;2022-11-03T15:42:02;7.17;;;6.63;;
4676;SDS011;2352;48.180;11.478;2022-11-03T15:45:06;7.63;;;7.03;;
4676;SDS011;2352;48.180;11.478;2022-11-03T15:48:11;9.00;;;8.20;;
4676;SDS011;2352;48.180;11.478;2022-11-03T15:51:14;11.43;;;9.33;;
4676;SDS011;2352;48.180;11.478;2022-11-03T15:54:17;8.63;;;7.93;;
4676;SDS011;2352;48.180;11.478;2022-11-03T15:57:22;10.77;;;9.60;;
4676;SDS011;2352;48.180;11.478;2022-11-03T16:00:25;8.90;;;8.27;;
4676;SDS011;2352;48.180;11.478;2022-11-03T16:03:28;8.53;;;7.83;;
4676;SDS011;2352;48.180;11.478;2022-11-03T16:06:32;9.77;;;8.33;;
4676;SDS011;2352;48.180;11.478;2022-11-03T16:09:55;14.90;;;9.30;;
4676;SDS011;2352;48.180;11.478;2022-11-03T16:12:59;9.60;;;8.70;;
4676;SDS011;2352;48.180;11.478;2022-11-03T16:16:02;9.17;;;8.17;;
4676;SDS011;2352;48.180;11.478;2022-11-03T16:19:05;10.43;;;8.83;;
4676;SDS011;2352;48.180;11.478;2022-11-03T16:22:10;8.80;;;8.10;;
4676;SDS011;2352;48.180;11.478;2022-11-03T16:25:13;10.27;;;9.47;;
4676;SDS011;2352;48.180;11.478;2022-11-03T16:28:22;14.70;;;10.93;;
4676;SDS011;2352;48.180;11.478;2022-11-03T16:31:25;17.80;;;10.10;;
4676;SDS011;2352;48.180;11.478;2022-11-03T16:34:28;13.50;;;11.37;;
4676;SDS011;2352;48.180;11.478;2022-11-03T16:37:31;10.97;;;9.97;;
4676;SDS011;2352;48.180;11.478;2022-11-03T16:40:34;11.83;;;10.93;;
4676;SDS011;2352;48.180;11.478;2022-11-03T16:43:39;12.47;;;11.37;;
4676;SDS011;2352;48.180;11.478;2022-11-03T16:46:41;12.83;;;11.70;;
4676;SDS011;2352;48.180;11.478;2022-11-03T16:49:44;12.23;;;11.23;;
4676;SDS011;2352;48.180;11.478;2022-11-03T16:52:47;15.07;;;13.63;;
4676;SDS011;2352;48.180;11.478;2022-11-03T16:55:51;15.60;;;14.20;;
4676;SDS011;2352;48.180;11.478;2022-11-03T16:58:55;14.10;;;12.90;;
4676;SDS011;2352;48.180;11.478;2022-11-03T17:01:58;16.23;;;14.70;;
4676;SDS011;2352;48.180;11.478;2022-11-03T17:05:01;16.27;;;14.97;;
4676;SDS011;2352;48.180;11.478;2022-11-03T17:08:04;14.77;;;13.60;;
4676;SDS011;2352;48.180;11.478;2022-11-03T17:11:27;13.63;;;12.23;;
4676;SDS011;2352;48.180;11.478;2022-11-03T17:14:41;14.47;;;13.17;;
4676;SDS011;2352;48.180;11.478;2022-11-03T17:17:43;12.33;;;11.23;;
4676;SDS011;2352;48.180;11.478;2022-11-03T17:20:46;13.20;;;12.07;;
4676;SDS011;2352;48.180;11.478;2022-11-03T17:23:50;15.63;;;14.23;;
4676;SDS011;2352;48.180;11.478;2022-11-03T17:26:53;13.73;;;12.47;;
4676;SDS011;2352;48.180;11.478;2022-11-03T17:30:04;15.47;;;14.10;;
4676;SDS011;2352;48.180;11.478;2022-11-03T17:33:11;16.37;;;14.87;;
4676;SDS011;2352;48.180;11.478;2022-11-03T17:36:17;14.37;;;13.10;;
4676;SDS011;2352;48.180;11.478;2022-11-03T17:39:21;15.70;;;14.30;;
4676;SDS011;2352;48.180;11.478;2022-11-03T17:42:29;15.17;;;13.50;;
4676;SDS011;2352;48.180;11.478;2022-11-03T17:45:34;15.63;;;14.20;;
4676;SDS011;2352;48.180;11.478;2022-11-03T17:48:37;18.97;;;15.90;;
4676;SDS011;2352;48.180;11.478;2022-11-03T17:51:40;16.73;;;15.30;;
4676;SDS011;2352;48.180;11.478;2022-11-03T17:54:43;14.43;;;13.10;;
4676;SDS011;2352;48.180;11.478;2022-11-03T17:57:46;16.10;;;14.80;;
4676;SDS011;2352;48.180;11.478;2022-11-03T18:00:51;18.83;;;14.07;;
4676;SDS011;2352;48.180;11.478;2022-11-03T18:03:54;14.67;;;13.47;;
4676;SDS011;2352;48.180;11.478;2022-11-03T18:06:57;15.07;;;13.77;;
4676;SDS011;2352;48.180;11.478;2022-11-03T18:10:01;15.07;;;13.23;;
4676;SDS011;2352;48.180;11.478;2022-11-03T18:13:06;16.30;;;14.67;;
4676;SDS011;2352;48.180;11.478;2022-11-03T18:16:18;14.50;;;13.30;;
4676;SDS011;2352;48.180;11.478;2022-11-03T18:19:21;14.53;;;13.23;;
4676;SDS011;2352;48.180;11.478;2022-11-03T18:22:24;15.13;;;13.60;;
4676;SDS011;2352;48.180;11.478;2022-11-03T18:25:27;15.50;;;13.93;;
4676;SDS011;2352;48.180;11.478;2022-11-03T18:28:30;12.53;;;11.27;;
4676;SDS011;2352;48.180;11.478;2022-11-03T18:31:35;12.20;;;11.20;;
4676;SDS011;2352;48.180;11.478;2022-11-03T18:34:41;15.53;;;14.13;;
4676;SDS011;2352;48.180;11.478;2022-11-03T18:37:44;12.80;;;11.57;;
4676;SDS011;2352;48.180;11.478;2022-11-03T18:40:47;11.77;;;10.67;;
4676;SDS011;2352;48.180;11.478;2022-11-03T18:43:50;11.50;;;10.47;;
4676;SDS011;2352;48.180;11.478;2022-11-03T18:46:55;10.40;;;9.10;;
4676;SDS011;2352;48.180;11.478;2022-11-03T18:49:58;12.40;;;11.17;;
4676;SDS011;2352;48.180;11.478;2022-11-03T18:53:01;14.17;;;13.13;;
4676;SDS011;2352;48.180;11.478;2022-11-03T18:56:07;12.73;;;11.20;;
4676;SDS011;2352;48.180;11.478;2022-11-03T18:59:16;13.20;;;11.90;;
4676;SDS011;2352;48.180;11.478;2022-11-03T19:02:23;16.90;;;12.47;;
4676;SDS011;2352;48.180;11.478;2022-11-03T19:05:28;14.13;;;12.43;;
4676;SDS011;2352;48.180;11.478;2022-11-03T19:08:33;15.10;;;13.63;;
4676;SDS011;2352;48.180;11.478;2022-11-03T19:11:37;13.77;;;11.97;;
4676;SDS011;2352;48.180;11.478;2022-11-03T19:14:41;13.97;;;11.90;;